Time;durP1;ratioP1;P1;durP2;ratioP2;P2;SDS_P1;SDS_P2;PMS_P1;PMS_P2;Temp;Humidity;BMP_temperature;BMP_pressure;BME280_temperature;BME280_humidity;BME280_pressure;Samples;Min_cycle;Max_cycle;Signal;HPM_P1;HPM_P2
2024/02/22 00:00:05;;;;;;;0.10;0.10;;;9.10;99.90;;;;;;5078328;28;20029;-74
2024/02/22 00:02:39;;;;;;;0.25;0.25;;;9.10;99.90;;;;;;5089569;28;20457;-73
2024/02/22 00:05:05;;;;;;;0.20;0.20;;;9.10;99.90;;;;;;5079675;28;20033;-73
2024/02/22 00:07:32;;;;;;;0.10;0.10;;;9.10;99.90;;;;;;5080328;28;20048;-74
2024/02/22 00:10:00;;;;;;;0.20;0.20;;;9.10;99.90;;;;;;5080008;28;20402;-73
2024/02/22 00:12:26;;;;;;;0.35;0.32;;;9.10;99.90;;;;;;5061188;28;20032;-73
2024/02/22 00:14:55;;;;;;;0.10;0.10;;;9.10;1.00;;;;;;5080698;28;20043;-74
2024/02/22 00:17:23;;;;;;;0.38;0.32;;;9.10;1.00;;;;;;5076534;28;20104;-73
2024/02/22 00:19:50;;;;;;;0.10;0.10;;;9.00;1.00;;;;;;5080591;28;20393;-72
2024/02/22 00:22:16;;;;;;;1.55;0.52;;;9.00;6.80;;;;;;5079895;28;20033;-73
2024/02/22 00:24:42;;;;;;;0.32;0.32;;;9.00;1.00;;;;;;5079635;28;20038;-73
2024/02/22 00:27:08;;;;;;;0.65;0.65;;;9.00;1.00;;;;;;5079464;28;20354;-72
2024/02/22 00:29:34;;;;;;;0.30;0.30;;;9.00;1.00;;;;;;5078902;28;20372;-73
2024/02/22 00:32:00;;;;;;;0.60;0.60;;;8.90;8.80;;;;;;5078762;28;20128;-73
2024/02/22 00:34:26;;;;;;;0.25;0.25;;;8.90;47.00;;;;;;5079784;28;20024;-72
2024/02/22 00:36:52;;;;;;;0.75;0.60;;;8.80;99.70;;;;;;5066018;28;20036;-72
2024/02/22 00:39:19;;;;;;;0.10;0.10;;;8.80;99.90;;;;;;5078708;28;20039;-72
2024/02/22 00:41:45;;;;;;;0.10;0.10;;;8.80;99.90;;;;;;5080421;28;20052;-73
2024/02/22 00:44:11;;;;;;;0.30;0.30;;;8.70;99.90;;;;;;5072737;28;20052;-75
2024/02/22 00:46:37;;;;;;;0.32;0.32;;;8.70;99.90;;;;;;5051445;28;20025;-73
2024/02/22 00:49:04;;;;;;;0.10;0.10;;;8.70;99.90;;;;;;5060336;28;20036;-72
2024/02/22 00:51:30;;;;;;;0.10;0.10;;;8.70;99.90;;;;;;5081355;28;20043;-72
2024/02/22 00:53:56;;;;;;;0.10;0.10;;;8.70;1.00;;;;;;5079128;28;20039;-72
2024/02/22 00:56:22;;;;;;;0.10;0.10;;;8.70;1.00;;;;;;5077192;28;20024;-73
2024/02/22 00:58:49;;;;;;;0.20;0.20;;;8.70;1.00;;;;;;5078953;28;20039;-73
2024/02/22 01:01:15;;;;;;;0.40;0.40;;;8.70;1.00;;;;;;5078701;28;20032;-76
2024/02/22 01:03:41;;;;;;;0.10;0.10;;;8.70;1.00;;;;;;5079881;28;20393;-72
2024/02/22 01:06:10;;;;;;;3.95;0.50;;;8.60;30.00;;;;;;5065327;28;20044;-73
2024/02/22 01:08:36;;;;;;;0.10;0.10;;;8.70;65.60;;;;;;5068789;28;20028;-73
2024/02/22 01:11:03;;;;;;;0.10;0.10;;;8.60;99.90;;;;;;5079060;28;20056;-73
2024/02/22 01:13:30;;;;;;;0.20;0.20;;;8.60;99.90;;;;;;5077263;28;20135;-73
2024/02/22 01:15:56;;;;;;;0.15;0.15;;;8.60;99.90;;;;;;5079387;28;20051;-73
2024/02/22 01:18:22;;;;;;;0.10;0.10;;;8.60;99.90;;;;;;5077098;28;20051;-73
2024/02/22 01:20:48;;;;;;;0.40;0.40;;;8.60;99.90;;;;;;5079721;28;20051;-74
2024/02/22 01:23:14;;;;;;;0.22;0.22;;;8.60;99.90;;;;;;5078793;28;20051;-72
2024/02/22 01:25:40;;;;;;;0.63;0.45;;;8.60;99.90;;;;;;5082930;28;20040;-72
2024/02/22 01:28:12;;;;;;;0.40;0.40;;;8.50;99.90;;;;;;5075880;28;20032;-72
2024/02/22 01:30:39;;;;;;;0.32;0.32;;;8.50;99.90;;;;;;5080185;28;20035;-72
2024/02/22 01:33:05;;;;;;;1.20;0.85;;;8.60;99.90;;;;;;5079233;28;20044;-72
2024/02/22 01:35:31;;;;;;;0.10;0.10;;;8.50;99.90;;;;;;5078313;28;20040;-72
2024/02/22 01:37:57;;;;;;;0.30;0.30;;;8.50;99.90;;;;;;5077108;28;20039;-72
2024/02/22 01:40:24;;;;;;;0.10;0.10;;;8.50;99.90;;;;;;5076719;28;20036;-73
2024/02/22 01:42:50;;;;;;;0.65;0.65;;;8.50;99.90;;;;;;5076608;28;20048;-71
2024/02/22 01:45:16;;;;;;;0.65;0.65;;;8.50;99.90;;;;;;5079710;28;20037;-73
2024/02/22 01:47:43;;;;;;;0.35;0.35;;;8.50;99.90;;;;;;5078544;28;20051;-72
2024/02/22 01:50:09;;;;;;;0.10;0.10;;;8.60;99.90;;;;;;5078096;28;20043;-72
2024/02/22 01:52:35;;;;;;;0.10;0.10;;;8.50;99.90;;;;;;5076169;28;20056;-72
2024/02/22 01:55:03;;;;;;;0.10;0.10;;;8.60;99.90;;;;;;5079014;28;20024;-72
2024/02/22 01:57:29;;;;;;;0.25;0.25;;;8.60;99.90;;;;;;5077751;28;20043;-71
2024/02/22 01:59:56;;;;;;;0.15;0.15;;;8.60;99.90;;;;;;5076497;28;20041;-72
2024/02/22 02:02:22;;;;;;;0.70;0.43;;;8.60;99.90;;;;;;5063335;28;20040;-72
2024/02/22 02:04:48;;;;;;;0.10;0.10;;;8.60;99.90;;;;;;5078814;28;20082;-72
2024/02/22 02:07:14;;;;;;;0.30;0.30;;;8.60;99.90;;;;;;5078171;28;20040;-73
2024/02/22 02:09:41;;;;;;;0.10;0.10;;;8.60;99.90;;;;;;5075838;28;20039;-72
2024/02/22 02:12:07;;;;;;;0.35;0.35;;;8.60;99.90;;;;;;5075706;28;20037;-72
2024/02/22 02:14:33;;;;;;;0.20;0.20;;;8.60;99.90;;;;;;5075649;28;20035;-72
2024/02/22 02:16:59;;;;;;;0.10;0.10;;;8.60;99.90;;;;;;5079585;28;20035;-73
2024/02/22 02:19:26;;;;;;;0.10;0.10;;;8.60;99.90;;;;;;5077150;28;20036;-72
2024/02/22 02:22:07;;;;;;;0.20;0.20;;;8.70;99.90;;;;;;5047758;28;20036;-73
2024/02/22 02:24:41;;;;;;;0.80;0.73;;;8.70;99.90;;;;;;5075882;28;20048;-73
2024/02/22 02:27:07;;;;;;;0.10;0.10;;;8.60;99.90;;;;;;5077777;28;20040;-74
2024/02/22 02:29:33;;;;;;;0.28;0.22;;;8.60;99.90;;;;;;5075845;28;20032;-73
2024/02/22 02:31:59;;;;;;;0.43;0.43;;;8.70;99.90;;;;;;5078563;28;20028;-73
2024/02/22 02:34:26;;;;;;;0.10;0.10;;;8.70;99.90;;;;;;5079401;28;20043;-73
2024/02/22 02:36:52;;;;;;;0.20;0.20;;;8.70;99.90;;;;;;5077540;28;20039;-73
2024/02/22 02:39:18;;;;;;;0.30;0.30;;;8.70;99.90;;;;;;5077810;28;20025;-74
2024/02/22 02:41:45;;;;;;;0.10;0.10;;;8.70;99.90;;;;;;5084152;28;20393;-74
2024/02/22 02:44:11;;;;;;;0.20;0.20;;;8.70;99.90;;;;;;5080572;28;20052;-74
2024/02/22 02:46:38;;;;;;;0.47;0.47;;;8.70;99.90;;;;;;5063483;28;20032;-73
2024/02/22 02:49:04;;;;;;;0.63;0.15;;;8.70;99.90;;;;;;5079847;28;20465;-73
2024/02/22 02:51:31;;;;;;;0.20;0.20;;;8.70;99.90;;;;;;5082266;28;20037;-73
2024/02/22 02:53:57;;;;;;;0.20;0.20;;;8.70;99.90;;;;;;5080576;28;20036;-73
2024/02/22 02:56:23;;;;;;;0.25;0.25;;;8.70;99.90;;;;;;5064645;28;20033;-73
2024/02/22 02:58:49;;;;;;;0.65;0.57;;;8.80;99.90;;;;;;5089334;28;20028;-74
2024/02/22 03:01:16;;;;;;;0.25;0.17;;;8.80;99.90;;;;;;5090450;28;20047;-73
2024/02/22 03:03:42;;;;;;;0.25;0.20;;;8.80;99.90;;;;;;5094541;28;20028;-74
2024/02/22 03:06:08;;;;;;;5.07;1.38;;;8.80;99.90;;;;;;5092485;28;20036;-73
2024/02/22 03:08:34;;;;;;;0.10;0.10;;;8.80;99.90;;;;;;5091173;28;20024;-73
2024/02/22 03:11:02;;;;;;;0.10;0.10;;;8.80;99.90;;;;;;5073089;28;20036;-73
2024/02/22 03:13:28;;;;;;;0.20;0.20;;;8.80;99.90;;;;;;5084019;28;20445;-73
2024/02/22 03:15:54;;;;;;;0.10;0.10;;;8.80;99.90;;;;;;5084891;28;20188;-73
2024/02/22 03:18:21;;;;;;;0.10;0.10;;;8.90;99.90;;;;;;5083432;28;20032;-76
2024/02/22 03:20:47;;;;;;;0.10;0.10;;;8.80;99.90;;;;;;5082675;28;20031;-74
2024/02/22 03:23:13;;;;;;;0.10;0.10;;;8.90;99.90;;;;;;5087960;28;20032;-74
2024/02/22 03:25:41;;;;;;;0.13;0.13;;;8.90;99.90;;;;;;5085823;28;20039;-74
2024/02/22 03:28:10;;;;;;;0.55;0.55;;;8.80;99.90;;;;;;5085321;28;20032;-74
2024/02/22 03:30:36;;;;;;;0.10;0.10;;;8.90;99.90;;;;;;5080781;28;20040;-73
2024/02/22 03:33:02;;;;;;;1.10;0.45;;;8.80;99.90;;;;;;5084070;28;20036;-73
2024/02/22 03:35:29;;;;;;;0.15;0.15;;;8.80;99.90;;;;;;5082324;28;20049;-74
2024/02/22 03:37:56;;;;;;;0.57;0.57;;;8.80;99.90;;;;;;5083303;28;20031;-71
2024/02/22 03:40:22;;;;;;;0.10;0.10;;;8.80;99.90;;;;;;5081112;28;20048;-77
2024/02/22 03:42:48;;;;;;;0.20;0.20;;;8.80;99.90;;;;;;5059323;28;20041;-73
2024/02/22 03:45:14;;;;;;;1.95;0.38;;;8.80;99.90;;;;;;5080733;28;20036;-74
2024/02/22 03:47:41;;;;;;;0.25;0.22;;;8.80;99.90;;;;;;5060278;28;20039;-74
2024/02/22 03:50:08;;;;;;;0.15;0.15;;;8.80;99.90;;;;;;5078501;28;20036;-74
2024/02/22 03:52:34;;;;;;;0.10;0.10;;;8.80;99.90;;;;;;5081180;28;20024;-74
2024/02/22 03:55:00;;;;;;;0.30;0.30;;;8.80;99.90;;;;;;5080749;28;20354;-74
2024/02/22 03:57:26;;;;;;;0.10;0.10;;;8.80;99.90;;;;;;5078189;28;20386;-74
2024/02/22 03:59:53;;;;;;;0.30;0.30;;;8.80;99.90;;;;;;5082291;28;20024;-74
2024/02/22 04:02:20;;;;;;;0.30;0.30;;;8.80;99.90;;;;;;5080898;28;20039;-73
2024/02/22 04:04:53;;;;;;;0.32;0.20;;;8.80;99.90;;;;;;5081933;28;20043;-74
2024/02/22 04:07:19;;;;;;;0.22;0.22;;;8.80;99.90;;;;;;5083461;28;20028;-73
2024/02/22 04:09:46;;;;;;;0.65;0.40;;;8.70;99.90;;;;;;5083645;28;20024;-74
2024/02/22 04:12:12;;;;;;;0.22;0.22;;;8.70;99.90;;;;;;5083660;28;20491;-74
2024/02/22 04:14:38;;;;;;;0.25;0.25;;;8.70;99.90;;;;;;5079442;28;20059;-73
2024/02/22 04:17:04;;;;;;;0.57;0.57;;;8.80;99.90;;;;;;5085790;28;20023;-73
2024/02/22 04:19:30;;;;;;;0.30;0.30;;;8.80;99.90;;;;;;5080749;28;20360;-73
2024/02/22 04:21:57;;;;;;;0.10;0.10;;;8.70;99.90;;;;;;5082457;28;20032;-73
2024/02/22 04:24:23;;;;;;;0.22;0.22;;;8.70;99.90;;;;;;5082355;28;20037;-73
2024/02/22 04:26:50;;;;;;;0.57;0.57;;;8.70;99.90;;;;;;5077954;28;20059;-74
2024/02/22 04:29:17;;;;;;;0.10;0.10;;;8.70;99.90;;;;;;5082056;28;20377;-73
2024/02/22 04:31:45;;;;;;;0.20;0.20;;;8.70;99.90;;;;;;5063937;28;20032;-73
2024/02/22 04:34:11;;;;;;;0.10;0.10;;;8.70;99.90;;;;;;5080795;28;20040;-72
2024/02/22 04:36:41;;;;;;;0.10;0.10;;;8.70;99.90;;;;;;5081214;28;20393;-72
2024/02/22 04:39:09;;;;;;;0.10;0.10;;;8.70;99.90;;;;;;5065379;28;20039;-73
2024/02/22 04:41:38;;;;;;;0.10;0.10;;;8.70;99.90;;;;;;5083136;28;20048;-73
2024/02/22 04:44:05;;;;;;;0.22;0.22;;;8.70;99.90;;;;;;5079872;28;20044;-73
2024/02/22 04:46:35;;;;;;;0.35;0.35;;;8.70;99.90;;;;;;5080159;28;20032;-74
2024/02/22 04:49:06;;;;;;;0.20;0.20;;;8.60;99.90;;;;;;5078468;28;20033;-73
2024/02/22 04:51:35;;;;;;;0.45;0.45;;;8.60;99.90;;;;;;5079848;28;20036;-73
2024/02/22 04:54:02;;;;;;;0.35;0.35;;;8.60;99.90;;;;;;5082168;28;20055;-73
2024/02/22 04:56:28;;;;;;;0.10;0.10;;;8.60;99.90;;;;;;5062888;28;20041;-73
2024/02/22 04:58:55;;;;;;;0.20;0.20;;;8.60;99.90;;;;;;5076575;28;20032;-73
2024/02/22 05:01:26;;;;;;;0.20;0.20;;;8.60;99.90;;;;;;5080473;28;20039;-73
2024/02/22 05:03:52;;;;;;;0.10;0.10;;;8.60;99.90;;;;;;5080948;28;20039;-72
2024/02/22 05:06:20;;;;;;;0.20;0.20;;;8.60;99.90;;;;;;5068010;28;20040;-72
2024/02/22 05:08:46;;;;;;;0.10;0.10;;;8.60;99.90;;;;;;5076711;28;20139;-73
2024/02/22 05:11:12;;;;;;;0.90;0.82;;;8.60;99.90;;;;;;5082289;28;20035;-72
2024/02/22 05:13:41;;;;;;;0.10;0.10;;;8.60;99.90;;;;;;5080810;28;20040;-73
2024/02/22 05:16:07;;;;;;;0.10;0.10;;;8.60;99.90;;;;;;5077533;28;20500;-72
2024/02/22 05:18:33;;;;;;;0.28;0.28;;;8.60;99.90;;;;;;5077674;28;20031;-71
2024/02/22 05:21:00;;;;;;;0.20;0.20;;;8.60;99.90;;;;;;5078970;28;20032;-72
2024/02/22 05:23:26;;;;;;;0.28;0.28;;;8.60;99.90;;;;;;5079218;28;20037;-75
2024/02/22 05:25:52;;;;;;;0.32;0.25;;;8.60;99.90;;;;;;5078758;28;20032;-72
2024/02/22 05:28:18;;;;;;;0.10;0.10;;;8.60;99.90;;;;;;5074472;28;20055;-72
2024/02/22 05:30:44;;;;;;;4.15;1.23;;;8.60;99.90;;;;;;5076435;28;20032;-72
2024/02/22 05:33:10;;;;;;;0.10;0.10;;;8.60;99.90;;;;;;5082050;28;20039;-72
2024/02/22 05:35:37;;;;;;;0.10;0.10;;;8.60;99.90;;;;;;5080081;28;20461;-73
2024/02/22 05:38:04;;;;;;;0.17;0.17;;;8.60;99.90;;;;;;5079187;28;20031;-72
2024/02/22 05:40:30;;;;;;;0.52;0.52;;;8.60;99.90;;;;;;5076948;28;20048;-72
2024/02/22 05:42:56;;;;;;;0.55;0.50;;;8.60;99.90;;;;;;5079055;28;20465;-73
2024/02/22 05:45:45;;;;;;;0.10;0.10;;;8.60;99.90;;;;;;5077796;28;20032;-72
2024/02/22 05:48:11;;;;;;;0.20;0.20;;;8.70;99.90;;;;;;5076700;28;20029;-72
2024/02/22 05:50:37;;;;;;;0.45;0.43;;;8.70;99.90;;;;;;5079455;28;20441;-72
2024/02/22 05:53:04;;;;;;;2.28;2.05;;;8.70;99.90;;;;;;5077675;28;20036;-72
2024/02/22 05:55:30;;;;;;;0.85;0.75;;;8.70;99.90;;;;;;5078287;28;20099;-72
2024/02/22 05:57:56;;;;;;;1.40;1.33;;;8.60;99.90;;;;;;5078288;28;20036;-73
2024/02/22 06:00:24;;;;;;;5.15;4.65;;;8.60;99.90;;;;;;5077339;28;20032;-72
2024/02/22 06:02:50;;;;;;;7.22;3.47;;;8.60;99.90;;;;;;5080360;28;20032;-72
2024/02/22 06:05:17;;;;;;;1.58;1.48;;;8.60;99.90;;;;;;5079726;28;20036;-72
2024/02/22 06:07:43;;;;;;;0.20;0.20;;;8.70;99.90;;;;;;5078534;28;20028;-72
2024/02/22 06:10:10;;;;;;;0.63;0.55;;;8.70;99.90;;;;;;5078823;28;20033;-72
2024/02/22 06:12:37;;;;;;;0.55;0.50;;;8.70;99.90;;;;;;5077895;28;20040;-72
2024/02/22 06:15:03;;;;;;;1.50;1.15;;;8.70;99.90;;;;;;5079712;28;20040;-73
2024/02/22 06:17:32;;;;;;;1.55;1.45;;;8.70;99.90;;;;;;5080013;28;20036;-75
2024/02/22 06:19:59;;;;;;;3.40;2.17;;;8.70;99.90;;;;;;5081101;28;20047;-72
2024/02/22 06:22:25;;;;;;;1.95;0.90;;;8.70;99.90;;;;;;5079178;28;20464;-73
2024/02/22 06:24:51;;;;;;;0.82;0.68;;;8.70;99.90;;;;;;5076305;28;20047;-72
2024/02/22 06:27:17;;;;;;;0.45;0.43;;;8.70;99.90;;;;;;5072035;28;20036;-72
2024/02/22 06:29:44;;;;;;;0.13;0.13;;;8.70;99.90;;;;;;5080137;28;20024;-73
2024/02/22 06:32:10;;;;;;;0.38;0.30;;;8.70;99.90;;;;;;5080975;28;20469;-72
2024/02/22 06:34:36;;;;;;;1.05;0.95;;;8.60;99.90;;;;;;5081700;28;20033;-72
2024/02/22 06:37:03;;;;;;;0.60;0.60;;;8.60;99.90;;;;;;5078519;28;20033;-72
2024/02/22 06:39:29;;;;;;;1.23;0.68;;;8.70;99.90;;;;;;5073543;28;20033;-77
2024/02/22 06:41:55;;;;;;;0.57;0.50;;;8.70;99.90;;;;;;5076408;28;20049;-73
2024/02/22 06:44:22;;;;;;;0.32;0.32;;;8.70;99.90;;;;;;5078444;28;20029;-72
2024/02/22 06:46:48;;;;;;;0.45;0.40;;;8.70;99.90;;;;;;5079759;28;20068;-72
2024/02/22 06:49:17;;;;;;;0.65;0.65;;;8.70;99.90;;;;;;5065454;28;20032;-72
2024/02/22 06:51:43;;;;;;;0.22;0.22;;;8.70;99.90;;;;;;5084031;28;20039;-73
2024/02/22 06:54:09;;;;;;;0.28;0.28;;;8.70;99.90;;;;;;5084428;28;20028;-72
2024/02/22 06:56:35;;;;;;;0.43;0.40;;;8.70;99.90;;;;;;5081361;28;20037;-72
2024/02/22 06:59:02;;;;;;;0.63;0.63;;;8.70;99.90;;;;;;5077446;28;20036;-72
2024/02/22 07:01:28;;;;;;;2.30;1.67;;;8.70;99.90;;;;;;5083029;28;20031;-73
2024/02/22 07:03:54;;;;;;;0.57;0.57;;;8.70;99.90;;;;;;5065194;28;20035;-73
2024/02/22 07:06:21;;;;;;;1.27;1.17;;;8.70;99.90;;;;;;5080534;28;20028;-73
2024/02/22 07:08:47;;;;;;;1.52;0.68;;;8.70;99.90;;;;;;5085748;28;20090;-72
2024/02/22 07:11:14;;;;;;;0.32;0.30;;;8.70;99.90;;;;;;5083942;28;20036;-72
2024/02/22 07:13:41;;;;;;;2.15;0.38;;;8.80;99.90;;;;;;5082731;28;20040;-72
2024/02/22 07:16:07;;;;;;;1.63;0.52;;;8.80;99.90;;;;;;5065643;28;20029;-73
2024/02/22 07:18:33;;;;;;;0.80;0.80;;;8.70;99.90;;;;;;5086718;28;20036;-75
2024/02/22 07:21:00;;;;;;;1.85;1.60;;;8.80;99.90;;;;;;5083224;28;20047;-73
2024/02/22 07:23:26;;;;;;;0.40;0.40;;;8.80;99.90;;;;;;5063483;28;20044;-73
2024/02/22 07:25:52;;;;;;;0.82;0.70;;;8.80;99.90;;;;;;5084879;28;20040;-73
2024/02/22 07:28:20;;;;;;;0.40;0.40;;;8.80;99.90;;;;;;5087298;28;20033;-72
2024/02/22 07:30:47;;;;;;;0.52;0.52;;;8.80;99.90;;;;;;5088117;28;20043;-73
2024/02/22 07:33:13;;;;;;;0.32;0.32;;;8.80;99.90;;;;;;5088302;28;20039;-72
2024/02/22 07:35:40;;;;;;;0.50;0.50;;;8.80;99.90;;;;;;5092205;28;20040;-72
2024/02/22 07:38:06;;;;;;;0.10;0.10;;;8.80;99.90;;;;;;5090121;28;20028;-73
2024/02/22 07:40:32;;;;;;;1.98;1.23;;;8.90;99.90;;;;;;5085038;28;20044;-75
2024/02/22 07:42:59;;;;;;;0.75;0.60;;;8.90;99.90;;;;;;5086353;28;20024;-73
2024/02/22 07:45:28;;;;;;;0.30;0.25;;;8.90;99.90;;;;;;5090011;28;20031;-73
2024/02/22 07:47:55;;;;;;;0.57;0.47;;;9.00;99.90;;;;;;5090017;28;20623;-74
2024/02/22 07:50:22;;;;;;;0.10;0.10;;;9.00;99.90;;;;;;5087875;28;20027;-73
2024/02/22 07:52:48;;;;;;;0.63;0.63;;;9.00;99.90;;;;;;5087519;28;20028;-73
2024/02/22 07:55:14;;;;;;;0.10;0.10;;;9.00;99.90;;;;;;5084241;28;20031;-73
2024/02/22 07:57:40;;;;;;;0.10;0.10;;;9.00;99.90;;;;;;5087448;28;20031;-73
2024/02/22 08:00:07;;;;;;;1.10;0.73;;;9.00;99.90;;;;;;5087767;28;20035;-73
2024/02/22 08:02:34;;;;;;;0.15;0.15;;;9.00;99.90;;;;;;5086208;28;20032;-73
2024/02/22 08:05:01;;;;;;;0.60;0.60;;;9.00;99.90;;;;;;5088557;28;20031;-72
2024/02/22 08:07:27;;;;;;;1.88;1.75;;;9.10;99.90;;;;;;5087167;28;20051;-72
2024/02/22 08:09:53;;;;;;;0.80;0.80;;;9.10;99.90;;;;;;5085656;28;20548;-71
2024/02/22 08:12:19;;;;;;;0.40;0.40;;;9.10;99.90;;;;;;5084823;28;20028;-72
2024/02/22 08:14:45;;;;;;;0.40;0.40;;;9.10;99.90;;;;;;5088906;28;20401;-72
2024/02/22 08:17:16;;;;;;;0.40;0.40;;;9.10;99.90;;;;;;5091545;28;20031;-71
2024/02/22 08:19:42;;;;;;;0.20;0.20;;;9.10;99.90;;;;;;5087376;28;20028;-71
2024/02/22 08:22:09;;;;;;;0.10;0.10;;;9.10;99.90;;;;;;5092943;28;20027;-72
2024/02/22 08:24:35;;;;;;;0.38;0.38;;;9.20;99.90;;;;;;5087594;28;20039;-74
2024/02/22 08:27:01;;;;;;;0.10;0.10;;;9.20;99.90;;;;;;5087609;28;20465;-72
2024/02/22 08:29:27;;;;;;;0.10;0.10;;;9.20;99.90;;;;;;5087330;28;20025;-71
2024/02/22 08:31:54;;;;;;;0.40;0.40;;;9.20;99.90;;;;;;5086678;28;20028;-72
2024/02/22 08:34:21;;;;;;;0.17;0.17;;;9.30;99.90;;;;;;5084026;28;20030;-72
2024/02/22 08:36:47;;;;;;;0.10;0.10;;;9.30;99.90;;;;;;5084381;28;20035;-73
2024/02/22 08:39:14;;;;;;;0.13;0.13;;;9.30;99.90;;;;;;5088571;28;20429;-73
2024/02/22 08:41:40;;;;;;;0.38;0.38;;;9.30;99.90;;;;;;5085373;28;20050;-73
2024/02/22 08:44:06;;;;;;;1.10;0.30;;;9.30;99.90;;;;;;5086928;28;20045;-72
2024/02/22 08:46:32;;;;;;;0.47;0.47;;;9.40;99.90;;;;;;5089416;28;20389;-72
2024/02/22 08:48:59;;;;;;;0.10;0.10;;;9.40;99.90;;;;;;5080873;28;20055;-73
2024/02/22 08:51:25;;;;;;;0.68;0.68;;;9.40;99.90;;;;;;5081067;28;20504;-73
2024/02/22 08:53:51;;;;;;;0.10;0.10;;;9.40;99.90;;;;;;5080369;28;20032;-73
2024/02/22 08:56:18;;;;;;;0.40;0.40;;;9.40;99.90;;;;;;5078816;28;20039;-73
2024/02/22 08:58:44;;;;;;;0.30;0.30;;;9.50;99.90;;;;;;5080793;28;20035;-75
2024/02/22 09:01:11;;;;;;;0.10;0.10;;;9.50;99.90;;;;;;5084145;28;20032;-73
2024/02/22 09:03:37;;;;;;;0.20;0.20;;;9.50;99.90;;;;;;5086371;28;20488;-75
2024/02/22 09:06:04;;;;;;;0.10;0.10;;;9.50;99.90;;;;;;5087009;28;20024;-72
2024/02/22 09:08:31;;;;;;;0.40;0.20;;;9.50;99.90;;;;;;5085494;28;20033;-73
2024/02/22 09:10:57;;;;;;;0.30;0.30;;;9.60;99.90;;;;;;5077042;28;20036;-72
2024/02/22 09:13:23;;;;;;;0.10;0.10;;;9.60;99.90;;;;;;5081354;28;20047;-72
2024/02/22 09:15:50;;;;;;;0.82;0.82;;;9.60;99.90;;;;;;5083595;28;20487;-72
2024/02/22 09:18:17;;;;;;;9.70;4.15;;;9.60;99.90;;;;;;5088602;28;20543;-73
2024/02/22 09:20:46;;;;;;;8.38;4.28;;;9.70;99.90;;;;;;5081090;28;20033;-72
2024/02/22 09:23:16;;;;;;;5.43;4.90;;;9.70;99.90;;;;;;5083990;28;20032;-73
2024/02/22 09:25:43;;;;;;;5.45;2.53;;;9.80;99.90;;;;;;5086481;28;20437;-73
2024/02/22 09:28:10;;;;;;;3.55;1.23;;;9.80;99.90;;;;;;5080727;28;20028;-72
2024/02/22 09:30:36;;;;;;;0.40;0.40;;;9.80;99.90;;;;;;5077935;28;20043;-72
2024/02/22 09:33:03;;;;;;;1.25;0.80;;;9.80;99.90;;;;;;5080413;28;20039;-72
2024/02/22 09:35:30;;;;;;;0.35;0.35;;;9.90;99.90;;;;;;5079701;28;20487;-73
2024/02/22 09:37:56;;;;;;;1.08;0.95;;;9.90;99.90;;;;;;5082723;28;20036;-72
2024/02/22 09:40:23;;;;;;;0.40;0.40;;;9.90;99.90;;;;;;5071573;28;20056;-74
2024/02/22 09:42:50;;;;;;;0.20;0.20;;;9.90;99.90;;;;;;5057593;28;20043;-72
2024/02/22 09:45:16;;;;;;;0.20;0.20;;;9.90;99.90;;;;;;5086718;28;20066;-74
2024/02/22 09:47:45;;;;;;;0.10;0.10;;;9.90;99.90;;;;;;5082912;28;20032;-74
2024/02/22 09:50:11;;;;;;;0.10;0.10;;;9.90;99.90;;;;;;5084529;28;20348;-73
2024/02/22 09:52:38;;;;;;;0.52;0.38;;;10.00;99.90;;;;;;5081265;28;20032;-74
2024/02/22 09:55:05;;;;;;;0.88;0.80;;;10.00;99.90;;;;;;5086380;28;20059;-74
2024/02/22 09:57:32;;;;;;;0.98;0.70;;;10.00;99.90;;;;;;5084986;28;20488;-73
2024/02/22 09:59:59;;;;;;;1.23;1.13;;;10.00;99.90;;;;;;5081705;28;20134;-73
2024/02/22 10:02:25;;;;;;;4.38;1.40;;;10.00;99.90;;;;;;5080398;28;20035;-73
2024/02/22 10:04:56;;;;;;;0.50;0.50;;;10.10;99.90;;;;;;5085046;28;20047;-72
2024/02/22 10:07:23;;;;;;;2.13;1.83;;;10.10;99.90;;;;;;5084278;28;20055;-73
2024/02/22 10:09:50;;;;;;;0.98;0.93;;;10.10;99.90;;;;;;5085940;28;20047;-73
2024/02/22 10:12:30;;;;;;;1.17;0.95;;;10.10;99.90;;;;;;5082371;28;20346;-74
2024/02/22 10:14:57;;;;;;;0.47;0.47;;;10.10;99.90;;;;;;5084841;28;20657;-73
2024/02/22 10:17:25;;;;;;;1.85;0.85;;;10.10;99.90;;;;;;5089650;28;20266;-73
2024/02/22 10:19:55;;;;;;;1.00;0.95;;;10.10;99.90;;;;;;5066958;28;20472;-72
2024/02/22 10:22:26;;;;;;;0.50;0.50;;;10.10;99.90;;;;;;5069726;28;20384;-73
2024/02/22 10:24:53;;;;;;;;;;;10.10;99.90;;;;;;5084634;28;20058;-73
2024/02/22 10:27:25;;;;;;;0.43;0.43;;;10.10;99.90;;;;;;5086226;28;19907;-74
2024/02/22 10:29:54;;;;;;;0.63;0.38;;;10.20;99.90;;;;;;5084370;28;20465;-74
2024/02/22 10:32:20;;;;;;;0.30;0.30;;;10.20;99.90;;;;;;5087453;28;20043;-73
2024/02/22 10:34:50;;;;;;;0.28;0.28;;;10.20;99.90;;;;;;5070508;28;20040;-73
2024/02/22 10:37:17;;;;;;;0.10;0.10;;;10.20;99.90;;;;;;5083565;28;20393;-73
2024/02/22 10:39:45;;;;;;;0.20;0.20;;;10.20;99.90;;;;;;5085087;28;20024;-73
2024/02/22 10:42:14;;;;;;;0.20;0.20;;;10.30;99.90;;;;;;5080484;28;20052;-73
2024/02/22 10:44:46;;;;;;;0.32;0.32;;;10.30;99.90;;;;;;5085152;28;20043;-76
2024/02/22 10:47:12;;;;;;;0.10;0.10;;;10.30;99.90;;;;;;5087650;28;20036;-73
2024/02/22 10:49:39;;;;;;;0.13;0.13;;;10.40;99.90;;;;;;5087206;28;20035;-74
2024/02/22 10:52:07;;;;;;;0.10;0.10;;;10.40;99.90;;;;;;5079477;28;20036;-74
2024/02/22 10:54:34;;;;;;;0.10;0.10;;;10.40;99.90;;;;;;5083142;28;20028;-73
2024/02/22 10:57:02;;;;;;;0.10;0.10;;;10.40;99.90;;;;;;5082742;28;20037;-73
2024/02/22 10:59:30;;;;;;;0.20;0.20;;;10.50;93.10;;;;;;5085677;28;20024;-73
2024/02/22 11:01:58;;;;;;;0.28;0.15;;;10.50;98.90;;;;;;5086113;28;20047;-73
2024/02/22 11:04:25;;;;;;;0.38;0.30;;;10.50;97.50;;;;;;5087895;28;21478;-73
2024/02/22 11:06:51;;;;;;;1.35;1.27;;;10.40;91.30;;;;;;5089984;28;20036;-72
2024/02/22 11:09:22;;;;;;;0.82;0.82;;;10.40;99.90;;;;;;5089948;28;20055;-73
2024/02/22 11:11:51;;;;;;;0.77;0.75;;;10.40;99.90;;;;;;5086496;28;20036;-73
2024/02/22 11:14:37;;;;;;;0.10;0.10;;;10.40;99.90;;;;;;5088215;28;20464;-73
2024/02/22 11:17:26;;;;;;;0.80;0.80;;;10.40;99.90;;;;;;5085439;28;20466;-73
2024/02/22 11:19:54;;;;;;;1.05;0.80;;;10.40;96.40;;;;;;5084426;28;20477;-72
2024/02/22 11:22:20;;;;;;;0.85;0.85;;;10.40;99.90;;;;;;5080816;28;20033;-72
2024/02/22 11:24:48;;;;;;;0.75;0.75;;;10.40;99.90;;;;;;5086385;28;20032;-73
2024/02/22 11:27:18;;;;;;;1.02;0.90;;;10.40;92.10;;;;;;5083907;28;20060;-72
2024/02/22 11:29:44;;;;;;;0.65;0.65;;;10.40;64.80;;;;;;5085870;28;20024;-74
2024/02/22 11:32:12;;;;;;;0.28;0.25;;;10.40;21.80;;;;;;5071058;28;20032;-74
2024/02/22 11:34:39;;;;;;;0.30;0.30;;;10.40;16.10;;;;;;5073053;28;20040;-74
2024/02/22 11:37:11;;;;;;;0.20;0.20;;;10.40;13.70;;;;;;5088438;28;20016;-72
2024/02/22 11:39:37;;;;;;;0.20;0.20;;;10.40;29.50;;;;;;5073524;28;20028;-73
2024/02/22 11:42:05;;;;;;;0.28;0.25;;;10.40;1.00;;;;;;5084500;28;20044;-72
2024/02/22 11:44:31;;;;;;;0.68;0.38;;;10.50;2.80;;;;;;5089838;28;20032;-73
2024/02/22 11:46:57;;;;;;;0.20;0.20;;;10.40;1.00;;;;;;5083701;28;20091;-72
2024/02/22 11:49:24;;;;;;;0.50;0.50;;;10.50;1.00;;;;;;5085975;28;20406;-73
2024/02/22 11:51:50;;;;;;;0.15;0.15;;;10.50;1.00;;;;;;5079380;28;20032;-73
2024/02/22 11:54:16;;;;;;;0.40;0.40;;;10.50;1.00;;;;;;5081663;28;20036;-73
2024/02/22 11:56:43;;;;;;;0.10;0.10;;;10.60;1.00;;;;;;5081909;28;20039;-72
2024/02/22 11:59:11;;;;;;;0.10;0.10;;;10.60;99.90;;;;;;5077684;28;20028;-72
2024/02/22 12:01:38;;;;;;;0.10;0.10;;;10.60;99.90;;;;;;5081024;28;20028;-74
2024/02/22 12:04:05;;;;;;;0.10;0.10;;;10.60;99.90;;;;;;5082969;28;20407;-73
2024/02/22 12:06:31;;;;;;;0.32;0.32;;;10.70;99.90;;;;;;5083041;28;20040;-73
2024/02/22 12:08:58;;;;;;;0.10;0.10;;;10.60;99.90;;;;;;5080953;28;20031;-73
2024/02/22 12:11:25;;;;;;;0.20;0.20;;;10.60;99.90;;;;;;5076233;28;20032;-73
2024/02/22 12:13:58;;;;;;;0.13;0.13;;;10.60;99.90;;;;;;5081154;28;20062;-73
2024/02/22 12:16:28;;;;;;;0.17;0.17;;;10.60;99.90;;;;;;5079425;28;20040;-73
2024/02/22 12:18:56;;;;;;;0.30;0.30;;;10.60;99.90;;;;;;5054958;28;20041;-73
2024/02/22 12:21:26;;;;;;;0.68;0.68;;;10.70;99.90;;;;;;5080669;28;20270;-73
2024/02/22 12:23:59;;;;;;;0.35;0.35;;;10.70;99.90;;;;;;5079149;28;20029;-73
2024/02/22 12:26:26;;;;;;;0.10;0.10;;;10.70;99.90;;;;;;5080325;28;20035;-73
2024/02/22 12:28:53;;;;;;;0.38;0.32;;;10.70;99.90;;;;;;5079462;28;20035;-73
2024/02/22 12:31:23;;;;;;;0.38;0.38;;;10.70;99.90;;;;;;5080947;28;20032;-74
2024/02/22 12:33:51;;;;;;;0.32;0.32;;;10.70;99.90;;;;;;5082011;28;20107;-74
2024/02/22 12:36:18;;;;;;;0.35;0.28;;;10.70;99.90;;;;;;5060121;28;20032;-74
2024/02/22 12:38:45;;;;;;;0.25;0.25;;;10.80;99.90;;;;;;5080402;28;20043;-73
2024/02/22 12:41:16;;;;;;;0.10;0.10;;;10.80;99.90;;;;;;5079023;28;20055;-73
2024/02/22 12:43:47;;;;;;;0.25;0.25;;;10.80;99.90;;;;;;5077270;28;20385;-73
2024/02/22 12:46:15;;;;;;;0.10;0.10;;;10.80;99.90;;;;;;5083920;28;20051;-73
2024/02/22 12:48:42;;;;;;;0.20;0.20;;;10.80;99.90;;;;;;5082087;28;20032;-75
2024/02/22 12:51:16;;;;;;;0.20;0.20;;;10.90;99.90;;;;;;5083135;28;20035;-74
2024/02/22 12:53:47;;;;;;;0.40;0.32;;;11.00;99.90;;;;;;5064521;28;20107;-74